sensor_id;sensor_type;location;lat;lon;timestamp;pressure;altitude;pressure_sealevel;temperature;humidity
33953;BME280;20231;42.710;23.280;2023-03-19T00:38:55;95464.78;;;6.50;49.34
33953;BME280;20231;42.710;23.280;2023-03-19T00:41:21;95391.19;;;6.19;49.43
33953;BME280;20231;42.710;23.280;2023-03-19T00:43:52;95345.56;;;6.15;48.93
33953;BME280;20231;42.710;23.280;2023-03-19T00:51:28;95395.94;;;6.38;48.59
33953;BME280;20231;42.710;23.280;2023-03-19T00:53:54;95324.06;;;5.97;49.11
33953;BME280;20231;42.710;23.280;2023-03-19T01:14:45;95365.50;;;6.54;48.81
33953;BME280;20231;42.710;23.280;2023-03-19T01:17:11;95341.16;;;6.21;48.84
33953;BME280;20231;42.710;23.280;2023-03-19T05:01:06;95398.00;;;5.27;52.55
33953;BME280;20231;42.710;23.280;2023-03-19T06:36:38;95499.63;;;6.67;52.15
33953;BME280;20231;42.710;23.280;2023-03-19T06:39:04;95478.59;;;6.46;51.87
33953;BME280;20231;42.710;23.280;2023-03-19T06:41:29;95492.41;;;6.41;52.42
33953;BME280;20231;42.710;23.280;2023-03-19T06:46:30;95520.41;;;6.74;52.32
33953;BME280;20231;42.710;23.280;2023-03-19T06:48:56;95526.53;;;6.79;52.28
33953;BME280;20231;42.710;23.280;2023-03-19T07:01:42;95514.91;;;6.92;51.64
33953;BME280;20231;42.710;23.280;2023-03-19T07:22:14;95533.78;;;7.10;51.54
33953;BME280;20231;42.710;23.280;2023-03-19T07:53:07;95532.88;;;7.42;49.91
33953;BME280;20231;42.710;23.280;2023-03-19T07:55:32;95510.56;;;7.87;71.05
33953;BME280;20231;42.710;23.280;2023-03-19T07:57:57;95525.47;;;9.48;79.15
33953;BME280;20231;42.710;23.280;2023-03-19T08:00:23;95526.63;;;9.82;70.72
33953;BME280;20231;42.710;23.280;2023-03-19T08:05:24;95431.94;;;8.80;54.71
33953;BME280;20231;42.710;23.280;2023-03-19T08:07:53;95429.47;;;8.58;51.21
33953;BME280;20231;42.710;23.280;2023-03-19T08:10:19;95476.16;;;8.83;49.38
33953;BME280;20231;42.710;23.280;2023-03-19T08:12:45;95491.19;;;8.87;47.21
33953;BME280;20231;42.710;23.280;2023-03-19T08:15:18;95527.91;;;8.72;47.25
33953;BME280;20231;42.710;23.280;2023-03-19T08:18:30;95467.91;;;8.33;48.61
33953;BME280;20231;42.710;23.280;2023-03-19T08:21:57;95426.47;;;8.14;48.13
33953;BME280;20231;42.710;23.280;2023-03-19T08:25:40;95522.72;;;8.82;48.37
33953;BME280;20231;42.710;23.280;2023-03-19T08:28:32;95528.22;;;8.81;47.14
33953;BME280;20231;42.710;23.280;2023-03-19T08:34:56;95433.09;;;8.16;47.11
33953;BME280;20231;42.710;23.280;2023-03-19T08:40:38;95476.81;;;8.63;46.69
33953;BME280;20231;42.710;23.280;2023-03-19T08:48:18;95507.31;;;9.06;46.48
33953;BME280;20231;42.710;23.280;2023-03-19T08:50:43;95500.06;;;9.18;45.46
33953;BME280;20231;42.710;23.280;2023-03-19T08:53:09;95497.63;;;9.11;45.84
33953;BME280;20231;42.710;23.280;2023-03-19T08:55:34;95493.69;;;9.14;45.61
33953;BME280;20231;42.710;23.280;2023-03-19T09:00:59;95402.38;;;8.63;44.69
33953;BME280;20231;42.710;23.280;2023-03-19T09:03:49;95448.38;;;9.02;45.11
33953;BME280;20231;42.710;23.280;2023-03-19T09:06:14;95478.75;;;9.24;45.42
33953;BME280;20231;42.710;23.280;2023-03-19T09:08:40;95480.09;;;9.31;44.62
33953;BME280;20231;42.710;23.280;2023-03-19T09:11:07;95477.72;;;9.35;43.83
33953;BME280;20231;42.710;23.280;2023-03-19T09:13:33;95477.50;;;9.41;43.76
33953;BME280;20231;42.710;23.280;2023-03-19T09:15:58;95446.63;;;9.27;44.25
33953;BME280;20231;42.710;23.280;2023-03-19T09:18:24;95456.72;;;9.45;44.11
33953;BME280;20231;42.710;23.280;2023-03-19T09:20:50;95477.03;;;9.59;43.97
33953;BME280;20231;42.710;23.280;2023-03-19T09:23:16;95472.28;;;9.56;43.17
33953;BME280;20231;42.710;23.280;2023-03-19T09:26:05;95474.44;;;9.74;42.96
33953;BME280;20231;42.710;23.280;2023-03-19T09:44:59;95455.56;;;10.12;41.07
33953;BME280;20231;42.710;23.280;2023-03-19T09:56:23;95391.50;;;10.06;39.56
33953;BME280;20231;42.710;23.280;2023-03-19T10:06:37;95362.22;;;10.23;38.87
33953;BME280;20231;42.710;23.280;2023-03-19T10:30:35;95406.69;;;11.95;38.63
33953;BME280;20231;42.710;23.280;2023-03-19T10:55:30;95325.38;;;12.39;37.25
33953;BME280;20231;42.710;23.280;2023-03-19T10:58:36;95356.09;;;12.63;36.96
33953;BME280;20231;42.710;23.280;2023-03-19T11:01:43;95352.56;;;12.73;36.68
33953;BME280;20231;42.710;23.280;2023-03-19T11:07:35;95265.53;;;12.19;38.25
33953;BME280;20231;42.710;23.280;2023-03-19T11:19:38;95239.16;;;12.80;36.64
33953;BME280;20231;42.710;23.280;2023-03-19T11:27:26;95289.78;;;13.56;35.95
33953;BME280;20231;42.710;23.280;2023-03-19T11:29:53;95250.59;;;13.35;36.28
33953;BME280;20231;42.710;23.280;2023-03-19T11:35:36;95196.22;;;13.19;36.31
33953;BME280;20231;42.710;23.280;2023-03-19T11:43:57;95199.22;;;13.95;38.56
33953;BME280;20231;42.710;23.280;2023-03-19T11:50:12;95271.16;;;14.52;34.73
33953;BME280;20231;42.710;23.280;2023-03-19T11:56:31;95185.22;;;14.21;36.76
33953;BME280;20231;42.710;23.280;2023-03-19T11:59:46;95192.91;;;14.36;36.55
33953;BME280;20231;42.710;23.280;2023-03-19T12:11:25;95215.53;;;15.22;35.95
33953;BME280;20231;42.710;23.280;2023-03-19T12:14:33;95236.03;;;15.44;34.76
33953;BME280;20231;42.710;23.280;2023-03-19T12:20:51;95184.19;;;15.33;33.98
33953;BME280;20231;42.710;23.280;2023-03-19T12:49:36;95151.56;;;15.71;33.82
33953;BME280;20231;42.710;23.280;2023-03-19T12:52:23;95205.13;;;16.30;33.75
33953;BME280;20231;42.710;23.280;2023-03-19T13:00:29;95154.56;;;16.39;32.49
33953;BME280;20231;42.710;23.280;2023-03-19T13:27:12;95088.81;;;17.15;31.77
33953;BME280;20231;42.710;23.280;2023-03-19T13:46:39;95083.63;;;17.44;30.98
33953;BME280;20231;42.710;23.280;2023-03-19T13:59:41;95082.69;;;17.48;31.29
33953;BME280;20231;42.710;23.280;2023-03-19T14:12:45;95084.72;;;17.97;31.52
33953;BME280;20231;42.710;23.280;2023-03-19T14:31:02;95116.75;;;18.43;30.36
33953;BME280;20231;42.710;23.280;2023-03-19T14:33:38;95109.09;;;18.33;30.78
33953;BME280;20231;42.710;23.280;2023-03-19T14:36:10;95096.72;;;18.28;31.95
33953;BME280;20231;42.710;23.280;2023-03-19T14:38:39;95114.19;;;18.75;31.95
33953;BME280;20231;42.710;23.280;2023-03-19T14:41:16;95115.50;;;18.89;33.28
33953;BME280;20231;42.710;23.280;2023-03-19T14:54:45;95099.81;;;18.88;30.23
33953;BME280;20231;42.710;23.280;2023-03-19T14:57:29;95095.28;;;18.80;31.34
33953;BME280;20231;42.710;23.280;2023-03-19T14:59:57;95106.72;;;18.89;30.61
33953;BME280;20231;42.710;23.280;2023-03-19T15:02:49;95112.19;;;18.92;30.24
33953;BME280;20231;42.710;23.280;2023-03-19T15:05:48;95047.69;;;18.53;30.31
33953;BME280;20231;42.710;23.280;2023-03-19T15:20:57;95025.44;;;18.61;29.42
33953;BME280;20231;42.710;23.280;2023-03-19T15:23:29;95116.25;;;19.19;29.30
33953;BME280;20231;42.710;23.280;2023-03-19T15:26:01;95078.75;;;18.86;29.84
33953;BME280;20231;42.710;23.280;2023-03-19T15:28:49;95124.16;;;19.15;29.47
33953;BME280;20231;42.710;23.280;2023-03-19T15:31:18;95091.44;;;18.89;29.36
33953;BME280;20231;42.710;23.280;2023-03-19T15:33:46;95060.66;;;18.83;29.57
33953;BME280;20231;42.710;23.280;2023-03-19T15:38:56;95123.16;;;19.40;29.59
33953;BME280;20231;42.710;23.280;2023-03-19T15:41:29;95055.09;;;18.88;29.69
33953;BME280;20231;42.710;23.280;2023-03-19T15:43:57;95072.28;;;19.08;29.94
33953;BME280;20231;42.710;23.280;2023-03-19T15:46:30;95125.25;;;19.55;29.99
33953;BME280;20231;42.710;23.280;2023-03-19T15:49:09;95037.59;;;18.99;29.46
33953;BME280;20231;42.710;23.280;2023-03-19T15:51:38;95034.97;;;18.91;29.88
33953;BME280;20231;42.710;23.280;2023-03-19T15:54:05;95110.25;;;19.42;30.37
33953;BME280;20231;42.710;23.280;2023-03-19T15:56:50;95066.91;;;19.28;29.92
33953;BME280;20231;42.710;23.280;2023-03-19T15:59:22;95029.56;;;18.99;29.51
33953;BME280;20231;42.710;23.280;2023-03-19T16:01:58;95046.44;;;19.12;30.12
33953;BME280;20231;42.710;23.280;2023-03-19T16:07:00;95069.41;;;18.92;29.20
33953;BME280;20231;42.710;23.280;2023-03-19T16:11:59;95130.94;;;19.13;29.58
33953;BME280;20231;42.710;23.280;2023-03-19T16:14:42;95082.06;;;18.83;31.00
33953;BME280;20231;42.710;23.280;2023-03-19T16:17:16;95129.03;;;19.13;31.38
33953;BME280;20231;42.710;23.280;2023-03-19T16:19:54;95065.25;;;18.63;31.28
33953;BME280;20231;42.710;23.280;2023-03-19T16:22:28;95115.31;;;18.74;31.43
33953;BME280;20231;42.710;23.280;2023-03-19T16:25:42;95133.38;;;18.77;31.17
33953;BME280;20231;42.710;23.280;2023-03-19T16:28:28;95084.47;;;18.19;31.34
33953;BME280;20231;42.710;23.280;2023-03-19T16:34:39;95135.22;;;18.27;31.60
33953;BME280;20231;42.710;23.280;2023-03-19T16:37:44;95137.91;;;18.19;31.84
33953;BME280;20231;42.710;23.280;2023-03-19T16:40:42;95141.66;;;18.26;32.04
33953;BME280;20231;42.710;23.280;2023-03-19T16:43:19;95139.50;;;18.20;32.29
33953;BME280;20231;42.710;23.280;2023-03-19T16:45:51;95111.28;;;17.93;31.98
33953;BME280;20231;42.710;23.280;2023-03-19T16:53:40;95065.28;;;17.42;32.63
33953;BME280;20231;42.710;23.280;2023-03-19T16:57:05;95144.78;;;17.74;32.33
33953;BME280;20231;42.710;23.280;2023-03-19T17:00:17;95067.97;;;17.09;33.01
33953;BME280;20231;42.710;23.280;2023-03-19T17:02:46;95152.22;;;17.52;33.07
33953;BME280;20231;42.710;23.280;2023-03-19T17:07:49;95158.63;;;17.17;33.48
33953;BME280;20231;42.710;23.280;2023-03-19T17:12:53;95133.69;;;16.96;34.19
33953;BME280;20231;42.710;23.280;2023-03-19T17:15:47;95166.16;;;17.15;33.84
33953;BME280;20231;42.710;23.280;2023-03-19T17:18:33;95089.91;;;16.55;34.48
33953;BME280;20231;42.710;23.280;2023-03-19T17:21:27;95168.81;;;16.98;34.78
33953;BME280;20231;42.710;23.280;2023-03-19T17:24:33;95110.25;;;16.43;35.08
33953;BME280;20231;42.710;23.280;2023-03-19T17:27:13;95095.00;;;16.26;35.41
33953;BME280;20231;42.710;23.280;2023-03-19T17:29:49;95126.19;;;16.34;35.97
33953;BME280;20231;42.710;23.280;2023-03-19T17:32:42;95082.97;;;15.90;36.39
33953;BME280;20231;42.710;23.280;2023-03-19T17:35:27;95109.19;;;16.05;36.45
33953;BME280;20231;42.710;23.280;2023-03-19T17:38:00;95094.63;;;15.72;36.80
33953;BME280;20231;42.710;23.280;2023-03-19T17:40:28;95089.34;;;15.80;37.21
33953;BME280;20231;42.710;23.280;2023-03-19T17:43:01;95166.84;;;16.18;37.12
33953;BME280;20231;42.710;23.280;2023-03-19T17:45:42;95123.97;;;15.89;37.55
33953;BME280;20231;42.710;23.280;2023-03-19T17:48:26;95143.22;;;15.86;37.56
33953;BME280;20231;42.710;23.280;2023-03-19T17:50:59;95127.47;;;15.68;37.92
33953;BME280;20231;42.710;23.280;2023-03-19T17:53:37;95192.31;;;16.10;37.68
33953;BME280;20231;42.710;23.280;2023-03-19T17:56:17;95137.22;;;15.80;37.83
33953;BME280;20231;42.710;23.280;2023-03-19T17:58:51;95149.75;;;15.80;37.71
33953;BME280;20231;42.710;23.280;2023-03-19T18:01:26;95185.56;;;16.04;37.68
33953;BME280;20231;42.710;23.280;2023-03-19T18:03:52;95193.88;;;16.03;37.48
33953;BME280;20231;42.710;23.280;2023-03-19T18:06:23;95189.13;;;16.00;37.29
33953;BME280;20231;42.710;23.280;2023-03-19T18:08:57;95171.81;;;15.80;37.74
33953;BME280;20231;42.710;23.280;2023-03-19T18:11:42;95171.34;;;15.78;37.70
33953;BME280;20231;42.710;23.280;2023-03-19T18:14:10;95158.25;;;15.60;37.72
33953;BME280;20231;42.710;23.280;2023-03-19T18:16:37;95173.00;;;15.66;37.89
33953;BME280;20231;42.710;23.280;2023-03-19T18:19:19;95163.38;;;15.57;38.00
33953;BME280;20231;42.710;23.280;2023-03-19T18:21:45;95176.44;;;15.45;38.22
33953;BME280;20231;42.710;23.280;2023-03-19T18:24:12;95181.47;;;15.24;38.73
33953;BME280;20231;42.710;23.280;2023-03-19T18:26:37;95178.72;;;15.16;38.87
33953;BME280;20231;42.710;23.280;2023-03-19T18:29:03;95190.09;;;15.30;38.81
33953;BME280;20231;42.710;23.280;2023-03-19T18:31:28;95183.72;;;15.17;38.37
33953;BME280;20231;42.710;23.280;2023-03-19T18:33:57;95217.88;;;15.24;38.64
33953;BME280;20231;42.710;23.280;2023-03-19T18:36:28;95222.31;;;15.28;38.65
33953;BME280;20231;42.710;23.280;2023-03-19T18:39:02;95196.44;;;15.07;39.02
33953;BME280;20231;42.710;23.280;2023-03-19T18:41:32;95229.50;;;15.28;44.96
33953;BME280;20231;42.710;23.280;2023-03-19T18:44:00;95206.91;;;14.90;39.29
33953;BME280;20231;42.710;23.280;2023-03-19T18:46:46;95225.59;;;14.98;38.78
33953;BME280;20231;42.710;23.280;2023-03-19T18:53:08;95233.88;;;14.97;38.82
33953;BME280;20231;42.710;23.280;2023-03-19T19:00:04;95234.28;;;14.77;39.82
33953;BME280;20231;42.710;23.280;2023-03-19T19:03:13;95238.22;;;14.80;39.71
33953;BME280;20231;42.710;23.280;2023-03-19T19:05:47;95234.78;;;14.52;40.23
33953;BME280;20231;42.710;23.280;2023-03-19T19:08:34;95226.22;;;14.42;40.09
33953;BME280;20231;42.710;23.280;2023-03-19T19:11:30;95248.28;;;14.56;40.01
33953;BME280;20231;42.710;23.280;2023-03-19T19:14:33;95256.84;;;14.66;39.79
33953;BME280;20231;42.710;23.280;2023-03-19T19:17:33;95252.88;;;14.50;40.02
33953;BME280;20231;42.710;23.280;2023-03-19T19:20:00;95255.13;;;14.43;40.38
33953;BME280;20231;42.710;23.280;2023-03-19T19:23:09;95251.00;;;14.37;40.55
33953;BME280;20231;42.710;23.280;2023-03-19T19:29:44;95261.22;;;14.30;40.83
33953;BME280;20231;42.710;23.280;2023-03-19T19:35:48;95254.22;;;14.21;41.06
33953;BME280;20231;42.710;23.280;2023-03-19T19:39:20;95272.13;;;14.29;40.67
33953;BME280;20231;42.710;23.280;2023-03-19T19:42:29;95274.59;;;14.39;40.53
33953;BME280;20231;42.710;23.280;2023-03-19T19:48:46;95261.53;;;14.42;40.30
33953;BME280;20231;42.710;23.280;2023-03-19T19:51:48;95271.44;;;14.24;40.76
33953;BME280;20231;42.710;23.280;2023-03-19T19:57:47;95269.88;;;14.23;40.68
33953;BME280;20231;42.710;23.280;2023-03-19T20:03:37;95209.53;;;13.51;41.16
33953;BME280;20231;42.710;23.280;2023-03-19T20:06:13;95261.31;;;13.94;40.97
33953;BME280;20231;42.710;23.280;2023-03-19T20:09:12;95158.38;;;13.19;41.17
33953;BME280;20231;42.710;23.280;2023-03-19T20:11:59;95264.78;;;13.94;40.62
33953;BME280;20231;42.710;23.280;2023-03-19T20:53:34;95262.03;;;12.94;50.21
33953;BME280;20231;42.710;23.280;2023-03-19T20:56:14;95314.28;;;13.99;61.28
33953;BME280;20231;42.710;23.280;2023-03-19T20:58:42;95311.88;;;13.84;43.41
33953;BME280;20231;42.710;23.280;2023-03-19T21:01:22;95291.28;;;13.26;43.54
33953;BME280;20231;42.710;23.280;2023-03-19T21:09:12;95261.97;;;12.99;43.30
33953;BME280;20231;42.710;23.280;2023-03-19T21:11:58;95228.56;;;12.80;43.04
33953;BME280;20231;42.710;23.280;2023-03-19T21:23:54;95315.34;;;12.87;43.31
33953;BME280;20231;42.710;23.280;2023-03-19T21:32:13;95266.69;;;12.37;43.82
33953;BME280;20231;42.710;23.280;2023-03-19T21:37:35;95295.72;;;12.65;43.69
33953;BME280;20231;42.710;23.280;2023-03-19T21:40:00;95307.19;;;12.79;43.57
33953;BME280;20231;42.710;23.280;2023-03-19T21:42:27;95302.56;;;12.71;43.97
33953;BME280;20231;42.710;23.280;2023-03-19T21:44:56;95299.91;;;12.71;43.78
33953;BME280;20231;42.710;23.280;2023-03-19T21:47:23;95310.19;;;12.73;43.91
33953;BME280;20231;42.710;23.280;2023-03-19T22:09:15;95299.53;;;12.31;44.72
33953;BME280;20231;42.710;23.280;2023-03-19T22:12:30;95269.66;;;12.02;45.14
33953;BME280;20231;42.710;23.280;2023-03-19T22:15:30;95302.88;;;12.13;45.02
33953;BME280;20231;42.710;23.280;2023-03-19T22:18:13;95204.03;;;11.47;45.15
33953;BME280;20231;42.710;23.280;2023-03-19T22:21:07;95306.72;;;11.97;45.56
33953;BME280;20231;42.710;23.280;2023-03-19T22:24:30;95304.31;;;12.29;45.07
33953;BME280;20231;42.710;23.280;2023-03-19T22:31:11;95311.59;;;11.85;45.50
33953;BME280;20231;42.710;23.280;2023-03-19T22:33:48;95234.47;;;11.07;45.88
33953;BME280;20231;42.710;23.280;2023-03-19T22:36:29;95261.88;;;11.49;45.67
33953;BME280;20231;42.710;23.280;2023-03-19T22:39:24;95299.44;;;11.51;46.01
33953;BME280;20231;42.710;23.280;2023-03-19T22:42:04;95279.09;;;11.46;45.85
33953;BME280;20231;42.710;23.280;2023-03-19T22:44:32;95309.06;;;11.70;45.63
33953;BME280;20231;42.710;23.280;2023-03-19T22:47:02;95253.47;;;11.52;45.46
33953;BME280;20231;42.710;23.280;2023-03-19T22:49:29;95304.09;;;11.64;45.61
33953;BME280;20231;42.710;23.280;2023-03-19T22:59:04;95301.47;;;11.64;45.50
33953;BME280;20231;42.710;23.280;2023-03-19T23:16:34;95307.66;;;11.39;46.63
33953;BME280;20231;42.710;23.280;2023-03-19T23:20:12;95308.16;;;11.46;46.05
33953;BME280;20231;42.710;23.280;2023-03-19T23:23:26;95306.31;;;11.52;45.74
33953;BME280;20231;42.710;23.280;2023-03-19T23:27:36;95268.16;;;11.25;45.99
33953;BME280;20231;42.710;23.280;2023-03-19T23:31:17;95232.44;;;10.94;46.06
33953;BME280;20231;42.710;23.280;2023-03-19T23:38:34;95312.81;;;11.16;46.48
33953;BME280;20231;42.710;23.280;2023-03-19T23:41:21;95242.78;;;10.80;46.04
33953;BME280;20231;42.710;23.280;2023-03-19T23:44:28;95308.88;;;11.19;45.87
33953;BME280;20231;42.710;23.280;2023-03-19T23:56:01;95195.59;;;10.74;45.89
33953;BME280;20231;42.710;23.280;2023-03-19T23:58:35;95206.56;;;10.48;46.66
